Time;durP1;ratioP1;P1;durP2;ratioP2;P2;SDS_P1;SDS_P2;PMS_P1;PMS_P2;Temp;Humidity;BMP_temperature;BMP_pressure;BME280_temperature;BME280_humidity;BME280_pressure;Samples;Min_cycle;Max_cycle;Signal;HPM_P1;HPM_P2
2021/06/21 00:00:55;;;;;;;;;;;;;;;22.13;85.90;100945.16;1693270;84;21401;-77
2021/06/21 00:03:27;;;;;;;37.75;8.58;;;;;;;22.10;85.95;100939.58;1697186;84;20309;-74
2021/06/21 00:06:02;;;;;;;33.08;8.55;;;;;;;22.04;85.95;100936.66;1698425;84;21844;-76
2021/06/21 00:08:35;;;;;;;26.12;8.68;;;;;;;21.98;85.94;100942.22;1689957;83;21777;-79
2021/06/21 00:11:10;;;;;;;42.00;9.83;;;;;;;21.94;86.20;100944.64;1686634;84;21227;-78
2021/06/21 00:13:43;;;;;;;39.70;10.03;;;;;;;21.95;86.41;100943.47;1696792;84;21400;-79
2021/06/21 00:16:16;;;;;;;32.67;9.65;;;;;;;21.96;86.52;100943.71;1694805;83;21185;-76
2021/06/21 00:18:49;;;;;;;35.95;9.63;;;;;;;21.96;86.54;100949.37;1702406;83;21189;-78
2021/06/21 00:21:23;;;;;;;39.85;10.50;;;;;;;21.96;86.42;100951.63;1696878;83;21196;-78
2021/06/21 00:23:56;;;;;;;29.20;8.70;;;;;;;21.95;86.59;100954.18;1700614;84;21772;-78
2021/06/21 00:26:30;;;;;;;38.42;9.40;;;;;;;21.95;86.53;100940.64;1698424;84;21733;-79
2021/06/21 00:29:02;;;;;;;44.65;11.03;;;;;;;21.93;86.59;100945.77;1698460;84;21839;-73
2021/06/21 00:31:35;;;;;;;46.23;9.23;;;;;;;21.94;86.67;100953.94;1694518;83;21435;-75
2021/06/21 00:34:08;;;;;;;32.60;8.73;;;;;;;21.94;86.49;100943.22;1700805;84;21196;-76
2021/06/21 00:36:41;;;;;;;39.45;8.85;;;;;;;21.91;86.53;100945.28;1692087;83;21216;-75
2021/06/21 00:39:13;;;;;;;32.40;9.60;;;;;;;21.88;86.54;100948.78;1694447;84;21232;-75
2021/06/21 00:41:46;;;;;;;36.77;9.33;;;;;;;21.87;86.67;100945.67;1677429;84;21338;-77
2021/06/21 00:44:18;;;;;;;31.80;7.85;;;;;;;21.87;86.75;100947.09;1695449;84;21745;-75
2021/06/21 00:46:51;;;;;;;31.40;9.45;;;;;;;21.85;86.62;100940.94;1686246;84;21372;-77
2021/06/21 00:49:24;;;;;;;34.90;9.00;;;;;;;21.81;86.63;100939.92;1697490;84;21224;-74
2021/06/21 00:51:57;;;;;;;34.70;9.33;;;;;;;21.77;86.78;100942.58;1692191;83;21371;-77
2021/06/21 00:54:31;;;;;;;31.62;10.30;;;;;;;21.73;86.79;100940.74;1697780;84;21653;-79
2021/06/21 00:57:05;;;;;;;30.35;8.35;;;;;;;21.67;86.82;100945.73;1686765;84;21251;-76
2021/06/21 00:59:38;;;;;;;52.85;10.90;;;;;;;21.63;86.95;100951.74;1696189;84;21362;-78
2021/06/21 01:02:11;;;;;;;41.42;9.68;;;;;;;21.60;87.16;100947.33;1693906;83;21858;-75
2021/06/21 01:04:43;;;;;;;32.45;10.55;;;;;;;21.58;87.28;100945.42;1694430;83;21271;-79
2021/06/21 01:07:17;;;;;;;31.23;9.08;;;;;;;21.56;87.48;100944.32;1694344;84;21232;-77
2021/06/21 01:09:51;;;;;;;25.45;8.73;;;;;;;21.55;87.60;100941.81;1698731;83;21200;-80
2021/06/21 01:12:53;;;;;;;35.83;9.05;;;;;;;21.56;87.78;100943.47;1691657;83;21390;-80
2021/06/21 01:15:29;;;;;;;40.70;9.53;;;;;;;21.60;87.88;100944.50;1700002;83;21259;-81
2021/06/21 01:18:15;;;;;;;38.75;10.68;;;;;;;21.61;87.68;100947.00;1695286;84;21224;-78
2021/06/21 01:21:04;;;;;;;41.45;10.43;;;;;;;21.58;87.62;100939.77;1696391;84;21915;-78
2021/06/21 01:24:13;;;;;;;31.48;9.63;;;;;;;21.62;87.91;100947.82;1698546;83;21197;-81
2021/06/21 01:26:56;;;;;;;37.40;10.20;;;;;;;21.63;87.67;100951.74;1694904;83;21366;-80
2021/06/21 01:30:01;;;;;;;37.98;10.18;;;;;;;21.58;87.46;100951.07;1698587;84;21374;-77
2021/06/21 01:32:48;;;;;;;33.02;9.53;;;;;;;21.57;87.65;100955.06;1651141;83;21219;-81
2021/06/21 01:35:44;;;;;;;34.13;10.38;;;;;;;21.58;87.72;100950.47;1698454;84;21263;-81
2021/06/21 01:38:23;;;;;;;39.00;10.85;;;;;;;21.58;87.55;100951.88;1695445;84;21236;-78
2021/06/21 01:40:58;;;;;;;41.77;10.40;;;;;;;21.58;87.51;100955.31;1700281;84;21358;-74
2021/06/21 01:43:35;;;;;;;36.58;9.63;;;;;;;21.53;87.64;100964.75;1692185;83;21879;-72
2021/06/21 01:46:09;;;;;;;32.33;9.88;;;;;;;21.54;87.73;100958.53;1689578;84;21380;-72
2021/06/21 01:48:52;;;;;;;49.30;10.53;;;;;;;21.54;87.71;100956.55;1693647;83;21410;-74
2021/06/21 01:51:25;;;;;;;28.73;9.60;;;;;;;21.57;87.73;100964.95;1691844;84;21210;-73
2021/06/21 01:54:00;;;;;;;37.13;9.70;;;;;;;21.53;87.76;100972.41;1694180;84;21354;-74
2021/06/21 01:56:36;;;;;;;50.50;12.03;;;;;;;21.48;87.77;100966.90;1693921;84;21365;-73
2021/06/21 01:59:09;;;;;;;33.78;10.70;;;;;;;21.45;87.95;100967.56;1697910;84;21923;-74
2021/06/21 02:01:46;;;;;;;54.53;12.03;;;;;;;21.46;88.07;100969.23;1704001;84;21177;-75
2021/06/21 02:04:19;;;;;;;34.90;9.05;;;;;;;21.50;88.18;100978.13;1693530;83;21371;-75
2021/06/21 02:06:52;;;;;;;34.55;10.58;;;;;;;21.54;88.14;100974.08;1698826;83;21212;-74
2021/06/21 02:09:25;;;;;;;36.60;10.88;;;;;;;21.57;88.12;100977.08;1698457;83;21382;-74
2021/06/21 02:11:58;;;;;;;36.30;9.98;;;;;;;21.59;87.97;100976.76;1698688;83;21216;-74
2021/06/21 02:14:31;;;;;;;30.90;9.83;;;;;;;21.58;87.87;100992.06;1697427;83;21366;-74
2021/06/21 02:17:04;;;;;;;28.62;11.10;;;;;;;21.57;87.95;100984.74;1683472;84;21362;-73
2021/06/21 02:19:36;;;;;;;46.80;11.38;;;;;;;21.59;87.92;100987.47;1701259;84;21403;-73
2021/06/21 02:22:09;;;;;;;30.08;9.90;;;;;;;21.59;88.04;100988.88;1694868;83;21446;-74
2021/06/21 02:24:42;;;;;;;27.37;9.73;;;;;;;21.60;87.99;100991.98;1698610;84;21334;-76
2021/06/21 02:27:17;;;;;;;28.92;10.60;;;;;;;21.61;88.07;101009.77;1695727;84;21280;-78
2021/06/21 02:29:51;;;;;;;36.25;10.38;;;;;;;21.66;88.17;101020.94;1697294;83;21339;-76
2021/06/21 02:32:24;;;;;;;44.15;11.88;;;;;;;21.70;88.08;101007.26;1688873;84;21278;-77
2021/06/21 02:34:56;;;;;;;43.28;10.43;;;;;;;21.73;87.76;101010.02;1698561;83;21745;-77
2021/06/21 02:37:29;;;;;;;39.03;11.30;;;;;;;21.73;87.74;101012.84;1696407;84;21930;-75
2021/06/21 02:40:04;;;;;;;42.48;10.98;;;;;;;21.76;87.71;101016.45;1696385;84;21357;-76
2021/06/21 02:42:37;;;;;;;45.55;11.15;;;;;;;21.76;87.62;101027.76;1695329;84;21413;-76
2021/06/21 02:45:13;;;;;;;42.45;10.35;;;;;;;21.74;87.66;101037.13;1698675;83;21215;-76
2021/06/21 02:47:45;;;;;;;39.27;10.15;;;;;;;21.74;87.72;101030.91;1694193;84;21752;-74
2021/06/21 02:50:19;;;;;;;30.35;9.45;;;;;;;21.71;87.80;101029.31;1700112;84;21387;-75
2021/06/21 02:53:05;;;;;;;32.83;9.87;;;;;;;21.70;87.72;101029.06;1698711;83;21227;-78
2021/06/21 02:56:13;;;;;;;38.20;10.58;;;;;;;21.59;87.68;101029.06;1698455;83;21327;-79
2021/06/21 02:58:47;;;;;;;33.70;9.03;;;;;;;21.48;88.08;101038.41;1694393;83;21354;-81
2021/06/21 03:01:19;;;;;;;29.55;9.70;;;;;;;21.45;88.50;101031.97;1701502;84;21394;-79
2021/06/21 03:03:55;;;;;;;37.90;10.72;;;;;;;21.49;88.93;101034.98;1698514;84;21268;-80
2021/06/21 03:06:28;;;;;;;38.23;12.20;;;;;;;21.47;89.25;101033.88;1659936;84;21906;-78
2021/06/21 03:09:01;;;;;;;33.08;9.75;;;;;;;21.48;89.41;101032.75;1694910;84;21242;-80
2021/06/21 03:11:34;;;;;;;;;;;;;;;21.52;89.49;101035.77;1693430;84;21842;-77
2021/06/21 03:14:07;;;;;;;34.95;9.83;;;;;;;21.55;89.71;101029.44;1695117;83;20261;-77
2021/06/21 03:16:40;;;;;;;30.85;9.25;;;;;;;21.61;89.96;101036.05;1685249;84;21417;-78
2021/06/21 03:19:14;;;;;;;36.75;9.35;;;;;;;21.71;89.96;101031.54;1698607;83;21351;-79
2021/06/21 03:21:47;;;;;;;37.40;10.75;;;;;;;21.69;89.44;101033.87;1690676;83;21272;-80
2021/06/21 03:24:27;;;;;;;45.67;12.68;;;;;;;21.68;89.60;101028.53;1695823;84;21761;-74
2021/06/21 03:27:01;;;;;;;45.43;12.33;;;;;;;21.70;89.86;101033.30;1697106;84;21359;-78
2021/06/21 03:29:35;;;;;;;50.73;14.40;;;;;;;21.69;90.32;101027.40;1699233;84;21219;-76
2021/06/21 03:32:26;;;;;;;43.60;14.03;;;;;;;21.67;90.77;101030.55;1704967;82;21241;-76
2021/06/21 03:35:04;;;;;;;41.53;12.07;;;;;;;21.66;91.03;101030.27;1685606;83;21885;-75
2021/06/21 03:37:36;;;;;;;23.65;9.83;;;;;;;21.66;91.53;101023.77;1740587;81;21846;-75
2021/06/21 03:40:10;;;;;;;;;;;;;;;21.62;92.07;101025.56;1710528;82;21238;-75
2021/06/21 03:42:42;;;;;;;18.02;9.58;;;;;;;21.61;92.25;101025.31;1717894;82;20220;-76
2021/06/21 03:45:16;;;;;;;17.02;9.93;;;;;;;21.64;92.87;101028.92;1721975;82;21396;-76
2021/06/21 03:47:49;;;;;;;26.82;9.83;;;;;;;21.70;93.22;101026.23;1711233;82;21368;-74
2021/06/21 03:50:22;;;;;;;21.55;9.05;;;;;;;21.81;93.32;101026.17;1714481;82;21258;-75
2021/06/21 03:52:54;;;;;;;14.85;8.23;;;;;;;21.85;92.97;101035.11;1720349;82;21356;-76
2021/06/21 03:55:27;;;;;;;15.10;7.65;;;;;;;21.88;92.91;101040.09;1716966;82;21342;-76
2021/06/21 03:57:59;;;;;;;15.97;8.93;;;;;;;21.89;92.77;101033.28;1714110;81;21352;-75
2021/06/21 04:00:33;;;;;;;23.57;8.93;;;;;;;21.94;93.00;101035.96;1703005;82;21270;-75
2021/06/21 04:03:07;;;;;;;23.47;9.60;;;;;;;22.03;93.07;101035.42;1709318;82;21835;-75
2021/06/21 04:05:39;;;;;;;19.57;8.48;;;;;;;22.06;92.68;101043.23;1710002;82;21388;-81
2021/06/21 04:08:14;;;;;;;24.15;9.48;;;;;;;22.05;92.74;101040.73;1691975;83;21413;-79
2021/06/21 04:10:47;;;;;;;20.90;7.87;;;;;;;22.14;92.76;101040.19;1706565;82;21489;-78
2021/06/21 04:13:20;;;;;;;19.50;9.65;;;;;;;22.20;92.70;101053.02;1696679;82;21495;-76
2021/06/21 04:15:52;;;;;;;21.05;9.65;;;;;;;22.29;92.57;101045.38;1691111;84;21373;-79
2021/06/21 04:18:25;;;;;;;18.17;8.73;;;;;;;22.34;92.32;101056.55;1687993;82;21344;-78
2021/06/21 04:20:59;;;;;;;14.85;7.55;;;;;;;22.40;92.40;101049.56;1677676;84;21210;-80
2021/06/21 04:23:32;;;;;;;;;;;;;;;22.49;92.04;101054.11;1693224;83;21336;-79
2021/06/21 04:26:04;;;;;;;20.12;9.45;;;;;;;22.54;91.94;101040.36;1704206;83;20258;-73
2021/06/21 04:28:37;;;;;;;22.05;10.20;;;;;;;22.57;91.44;101046.80;1735218;80;21196;-76
2021/06/21 04:31:09;;;;;;;16.90;8.75;;;;;;;22.62;91.76;101046.64;1738269;81;21363;-75
2021/06/21 04:33:42;;;;;;;20.30;7.53;;;;;;;22.77;91.62;101051.80;1758960;80;21209;-77
2021/06/21 04:36:15;;;;;;;17.90;7.60;;;;;;;22.91;91.15;101055.31;1766508;80;21924;-75
2021/06/21 04:38:48;;;;;;;20.43;8.17;;;;;;;23.01;90.58;101061.47;1763071;79;21253;-76
2021/06/21 04:41:20;;;;;;;20.10;8.40;;;;;;;23.08;89.93;101063.22;1745004;81;21333;-77
2021/06/21 04:43:52;;;;;;;13.43;7.47;;;;;;;23.09;89.55;101059.20;1786825;79;22067;-77
2021/06/21 04:46:25;;;;;;;16.95;7.08;;;;;;;23.15;89.49;101059.28;1738167;82;21344;-70
2021/06/21 04:48:58;;;;;;;14.28;6.47;;;;;;;23.26;89.24;101059.80;1702102;82;21260;-74
2021/06/21 04:51:32;;;;;;;13.15;8.00;;;;;;;23.38;88.74;101065.61;1696558;84;21877;-75
2021/06/21 04:54:06;;;;;;;15.55;7.55;;;;;;;23.49;88.17;101059.84;1707941;82;21398;-77
2021/06/21 04:56:39;;;;;;;20.23;7.35;;;;;;;23.53;87.52;101060.23;1699878;83;21705;-75
2021/06/21 04:59:12;;;;;;;19.57;7.00;;;;;;;23.53;87.11;101063.67;1701089;82;21766;-74
2021/06/21 05:01:47;;;;;;;20.85;6.83;;;;;;;23.52;86.78;101062.02;1713597;82;21399;-79
2021/06/21 05:04:19;;;;;;;27.05;7.80;;;;;;;23.52;86.64;101062.83;1697066;83;21386;-76
2021/06/21 05:06:52;;;;;;;;;;;;;;;23.52;86.41;101072.75;1691514;84;21777;-78
2021/06/21 05:09:26;;;;;;;21.27;7.80;;;;;;;23.52;86.23;101067.08;1659202;85;20202;-77
2021/06/21 05:12:00;;;;;;;17.55;6.92;;;;;;;23.53;86.31;101070.77;1687534;82;21411;-75
2021/06/21 05:14:35;;;;;;;18.98;8.90;;;;;;;23.48;86.22;101070.94;1701725;82;21210;-75
2021/06/21 05:17:07;;;;;;;17.42;8.60;;;;;;;23.43;86.46;101071.95;1718714;82;21229;-77
2021/06/21 05:19:40;;;;;;;21.23;8.10;;;;;;;23.44;86.75;101077.02;1710336;82;21269;-78
2021/06/21 05:22:13;;;;;;;20.85;7.17;;;;;;;23.44;86.88;101084.11;1714178;82;22083;-77
2021/06/21 05:24:45;;;;;;;24.60;7.83;;;;;;;23.45;86.47;101080.10;1719279;82;21810;-77
2021/06/21 05:27:18;;;;;;;;;;;;;;;23.42;86.67;101085.86;1735564;82;21715;-77
2021/06/21 05:29:50;;;;;;;30.32;11.20;;;;;;;23.43;86.54;101090.39;1732856;82;20293;-77
2021/06/21 05:32:22;;;;;;;25.57;12.18;;;;;;;23.43;86.77;101087.55;1727336;82;21340;-78
2021/06/21 05:34:55;;;;;;;33.87;12.93;;;;;;;23.45;86.76;101088.03;1724463;83;21329;-77
2021/06/21 05:37:28;;;;;;;25.25;11.30;;;;;;;23.45;86.84;101087.19;1787103;79;21737;-77
2021/06/21 05:40:00;;;;;;;29.63;11.73;;;;;;;23.43;86.94;101086.70;1786212;79;21401;-77
2021/06/21 05:42:34;;;;;;;31.73;12.40;;;;;;;23.38;86.75;101086.88;1785577;79;21301;-77
2021/06/21 05:45:08;;;;;;;43.25;12.82;;;;;;;23.25;86.97;101094.98;1785577;79;21817;-77
2021/06/21 05:47:40;;;;;;;26.12;11.28;;;;;;;23.23;87.80;101095.31;1787854;79;21247;-77
2021/06/21 05:50:14;;;;;;;42.77;14.03;;;;;;;23.29;88.12;101093.97;1785219;79;21512;-77
2021/06/21 05:52:50;;;;;;;38.45;12.13;;;;;;;23.42;87.99;101096.39;1784834;79;21923;-78
2021/06/21 05:55:24;;;;;;;48.15;13.68;;;;;;;23.54;87.95;101092.28;1788868;80;21318;-75
2021/06/21 05:57:58;;;;;;;49.27;11.70;;;;;;;23.63;87.54;101095.91;1788740;79;21192;-78
2021/06/21 06:00:30;;;;;;;;;;;;;;;23.72;86.92;101095.31;1791459;79;21330;-75
2021/06/21 06:03:02;;;;;;;42.98;10.98;;;;;;;23.79;86.54;101087.96;1787665;79;20186;-76
2021/06/21 06:05:35;;;;;;;38.73;10.80;;;;;;;23.91;86.21;101095.78;1787785;79;21331;-77
2021/06/21 06:08:08;;;;;;;58.35;11.50;;;;;;;24.01;85.34;101092.58;1787271;79;21177;-79
2021/06/21 06:10:43;;;;;;;46.15;9.70;;;;;;;24.09;84.83;101090.28;1785538;79;21239;-78
2021/06/21 06:13:16;;;;;;;39.08;10.15;;;;;;;24.14;84.08;101095.17;1785654;80;21728;-76
2021/06/21 06:15:48;;;;;;;46.13;9.87;;;;;;;24.16;83.10;101090.58;1787990;79;21180;-79
2021/06/21 06:18:24;;;;;;;58.05;11.65;;;;;;;24.17;82.75;101096.50;1788799;80;21462;-79
2021/06/21 06:20:57;;;;;;;52.58;11.25;;;;;;;24.20;82.81;101087.31;1788657;79;21426;-78
2021/06/21 06:23:32;;;;;;;41.77;10.85;;;;;;;24.18;82.59;101081.13;1784507;79;21911;-77
2021/06/21 06:26:04;;;;;;;55.90;12.00;;;;;;;24.24;82.79;101086.28;1785540;79;21228;-76
2021/06/21 06:28:40;;;;;;;48.48;10.98;;;;;;;24.37;82.96;101082.36;1788296;79;21185;-79
2021/06/21 06:31:13;;;;;;;53.95;10.82;;;;;;;24.56;82.33;101084.16;1787115;79;21335;-76
2021/06/21 06:33:47;;;;;;;61.55;11.68;;;;;;;24.77;81.33;101087.06;1788777;79;21390;-76
2021/06/21 06:36:20;;;;;;;47.70;11.10;;;;;;;24.91;80.64;101076.24;1786778;79;21196;-77
2021/06/21 06:38:54;;;;;;;53.90;11.77;;;;;;;25.12;80.18;101077.89;1786701;79;21720;-77
2021/06/21 06:41:26;;;;;;;50.83;12.58;;;;;;;25.42;79.57;101079.47;1792521;80;21453;-78
2021/06/21 06:43:59;;;;;;;48.90;12.30;;;;;;;25.70;77.50;101075.41;1788239;79;21378;-75
2021/06/21 06:46:31;;;;;;;62.78;13.75;;;;;;;25.90;76.67;101071.70;1788033;79;21725;-78
2021/06/21 06:49:07;;;;;;;59.48;13.72;;;;;;;26.15;75.28;101066.27;1790898;79;21223;-78
2021/06/21 06:51:47;;;;;;;46.95;12.68;;;;;;;26.39;74.44;101069.92;1771684;79;21390;-73
2021/06/21 06:57:03;;;;;;;55.80;14.18;;;;;;;26.82;72.24;101065.05;1751972;81;21375;-75
2021/06/21 06:59:42;;;;;;;60.03;15.55;;;;;;;26.90;71.70;101057.78;1746883;81;21842;-75
2021/06/21 07:02:23;;;;;;;59.63;13.38;;;;;;;27.08;71.37;101066.86;1763208;80;21322;-75
2021/06/21 07:05:00;;;;;;;57.30;14.65;;;;;;;27.27;70.16;101065.62;1756058;79;21334;-74
2021/06/21 07:07:36;;;;;;;63.98;17.17;;;;;;;27.47;69.72;101075.40;1739258;81;21214;-75
2021/06/21 07:10:08;;;;;;;50.85;16.20;;;;;;;27.59;68.58;101081.86;1745580;80;21178;-74
2021/06/21 07:12:41;;;;;;;66.17;19.67;;;;;;;27.68;67.73;101085.39;1755705;81;21390;-77
2021/06/21 07:15:15;;;;;;;75.15;18.30;;;;;;;27.57;66.96;101082.02;1755630;81;21350;-81
2021/06/21 07:17:49;;;;;;;70.55;17.17;;;;;;;27.48;67.38;101073.62;1745178;81;21410;-82
2021/06/21 07:20:22;;;;;;;54.63;17.82;;;;;;;27.40;67.47;101077.44;1747572;81;21852;-79
2021/06/21 07:22:54;;;;;;;63.92;17.15;;;;;;;27.37;67.67;101075.10;1746120;81;21390;-79
2021/06/21 07:25:27;;;;;;;54.30;17.55;;;;;;;27.40;68.01;101088.04;1752599;80;21209;-75
2021/06/21 07:28:00;;;;;;;61.40;17.85;;;;;;;27.46;68.11;101093.11;1729096;81;21197;-72
2021/06/21 07:30:34;;;;;;;45.28;13.40;;;;;;;27.64;68.45;101088.73;1729083;81;21284;-77
2021/06/21 07:33:06;;;;;;;56.53;16.17;;;;;;;27.99;67.96;101096.89;1752450;81;21350;-76
2021/06/21 07:35:46;;;;;;;60.17;14.95;;;;;;;28.30;66.26;101094.65;1744018;81;21170;-75
2021/06/21 07:38:14;;;;;;;69.15;15.35;;;;;;;28.53;66.10;101092.78;1760823;79;21190;-76
2021/06/21 07:40:47;;;;;;;49.53;12.95;;;;;;;28.76;65.08;101090.91;1729011;82;21759;-76
2021/06/21 07:43:19;;;;;;;49.75;13.88;;;;;;;28.89;63.97;101104.72;1756892;80;21190;-74
2021/06/21 07:45:52;;;;;;;57.78;12.95;;;;;;;28.97;63.24;101098.59;1761112;81;21202;-75
2021/06/21 07:48:24;;;;;;;69.22;13.30;;;;;;;29.02;63.64;101104.84;1763880;81;21178;-77
2021/06/21 07:50:59;;;;;;;47.67;11.35;;;;;;;29.06;62.95;101102.06;1755922;81;21247;-76
2021/06/21 07:53:33;;;;;;;43.95;11.85;;;;;;;29.07;62.02;101097.40;1758591;80;21384;-75
2021/06/21 07:56:08;;;;;;;55.15;11.40;;;;;;;28.99;61.85;101101.28;1762464;81;21340;-78
2021/06/21 07:58:41;;;;;;;56.60;13.38;;;;;;;28.90;62.08;101099.22;1751872;81;21819;-75
2021/06/21 08:01:14;;;;;;;61.92;13.62;;;;;;;28.96;62.89;101101.20;1728961;81;21218;-77
2021/06/21 08:03:47;;;;;;;;;;;;;;;28.99;62.78;101099.84;1731496;83;21234;-79
2021/06/21 08:06:19;;;;;;;60.55;12.53;;;;;;;28.89;63.02;101100.42;1744874;81;20190;-76
2021/06/21 08:08:53;;;;;;;58.52;13.32;;;;;;;28.87;63.27;101099.14;1744445;81;21331;-76
2021/06/21 08:11:26;;;;;;;37.50;10.13;;;;;;;28.83;62.56;101109.06;1740664;81;21262;-77
2021/06/21 08:13:58;;;;;;;51.85;11.00;;;;;;;28.83;62.39;101106.20;1756072;80;21293;-77
2021/06/21 08:16:33;;;;;;;79.05;14.87;;;;;;;28.67;61.66;101113.98;1761985;80;21199;-75
2021/06/21 08:19:06;;;;;;;50.08;13.53;;;;;;;28.49;62.70;101109.86;1730433;81;21206;-77
2021/06/21 08:21:40;;;;;;;51.83;14.28;;;;;;;28.39;63.14;101109.59;1736040;81;21158;-78
2021/06/21 08:24:13;;;;;;;54.33;15.70;;;;;;;28.21;63.42;101110.55;1766852;79;21243;-77
2021/06/21 08:26:45;;;;;;;56.05;13.35;;;;;;;28.03;64.02;101119.25;1780897;79;21357;-75
2021/06/21 08:29:18;;;;;;;62.27;13.10;;;;;;;27.92;63.93;101115.27;1779831;79;21387;-77
2021/06/21 08:31:51;;;;;;;46.08;14.15;;;;;;;27.78;64.12;101106.31;1768257;79;21182;-79
2021/06/21 08:34:24;;;;;;;74.37;17.82;;;;;;;27.85;64.87;101103.65;1738876;81;21265;-76
2021/06/21 08:36:57;;;;;;;68.25;16.30;;;;;;;27.98;64.47;101111.53;1744269;80;21722;-75
2021/06/21 08:39:30;;;;;;;63.85;16.95;;;;;;;27.96;64.14;101111.92;1763491;79;21920;-75
2021/06/21 08:42:03;;;;;;;54.27;17.48;;;;;;;27.91;64.28;101114.20;1738655;81;21193;-73
2021/06/21 08:44:36;;;;;;;;;;;;;;;27.79;64.78;101116.54;1731297;82;21194;-78
2021/06/21 08:47:08;;;;;;;60.45;17.48;;;;;;;27.76;64.98;101117.84;1747067;80;20194;-74
2021/06/21 08:49:45;;;;;;;49.83;15.65;;;;;;;27.70;65.44;101135.81;1748314;81;21806;-74
2021/06/21 08:52:19;;;;;;;46.28;14.47;;;;;;;27.66;65.74;101138.34;1723945;81;21250;-74
2021/06/21 08:55:03;;;;;;;49.20;16.75;;;;;;;27.44;65.28;101128.33;1750295;81;21247;-73
2021/06/21 08:57:30;;;;;;;45.00;16.73;;;;;;;27.18;66.58;101123.45;1743075;81;21711;-73
2021/06/21 09:00:10;;;;;;;41.18;16.35;;;;;;;27.12;66.80;101135.66;1740160;81;21213;-74
2021/06/21 09:02:43;;;;;;;54.27;15.38;;;;;;;27.05;67.40;101128.30;1752874;80;21821;-73
2021/06/21 09:05:15;;;;;;;;;;;;;;;27.07;67.28;101130.80;1759285;81;21877;-75
2021/06/21 09:07:48;;;;;;;39.05;12.68;;;;;;;27.03;67.12;101128.66;1750601;81;20548;-74
2021/06/21 09:10:29;;;;;;;39.48;14.23;;;;;;;26.98;67.19;101136.64;1741820;81;21352;-77
2021/06/21 09:13:12;;;;;;;47.33;15.63;;;;;;;26.85;67.54;101125.02;1757826;81;21509;-73
2021/06/21 09:15:48;;;;;;;39.80;14.78;;;;;;;26.83;68.40;101132.27;1758354;81;21856;-74
2021/06/21 09:18:39;;;;;;;47.20;13.13;;;;;;;26.90;68.08;101139.63;1749384;81;21294;-73
2021/06/21 09:21:29;;;;;;;35.88;12.28;;;;;;;26.89;68.18;101134.50;1759196;80;21210;-74
2021/06/21 09:24:04;;;;;;;45.80;11.60;;;;;;;26.91;68.43;101134.16;1757995;81;21416;-74
2021/06/21 09:26:37;;;;;;;34.98;9.68;;;;;;;26.94;67.84;101142.00;1721886;81;21274;-73
2021/06/21 09:29:10;;;;;;;41.37;12.80;;;;;;;26.89;67.81;101140.82;1756155;81;21838;-74
2021/06/21 09:31:57;;;;;;;44.48;13.00;;;;;;;26.82;68.04;101137.13;1720828;81;21205;-73
2021/06/21 09:34:29;;;;;;;42.23;12.13;;;;;;;26.88;68.56;101142.02;1752600;81;21353;-74
2021/06/21 09:37:12;;;;;;;41.13;12.35;;;;;;;26.93;68.27;101138.89;1737907;81;21202;-78
2021/06/21 09:39:46;;;;;;;51.35;11.83;;;;;;;26.94;67.83;101134.87;1729168;83;21210;-74
2021/06/21 09:42:26;;;;;;;47.70;10.43;;;;;;;26.96;68.07;101136.19;1717658;81;21727;-74
2021/06/21 09:45:03;;;;;;;55.15;9.55;;;;;;;26.96;67.76;101136.19;1760165;81;21330;-74
2021/06/21 09:47:41;;;;;;;55.80;9.15;;;;;;;27.01;67.81;101138.76;1753053;81;21240;-74
2021/06/21 09:50:18;;;;;;;61.30;8.98;;;;;;;27.08;66.93;101126.75;1737985;81;21332;-75
2021/06/21 09:53:02;;;;;;;47.50;9.90;;;;;;;27.08;66.73;101132.45;1751447;81;21222;-73
2021/06/21 09:55:46;;;;;;;67.95;10.20;;;;;;;27.09;66.85;101132.92;1734647;81;21249;-76
2021/06/21 09:58:21;;;;;;;61.25;8.95;;;;;;;27.12;66.48;101129.94;1746062;80;21182;-73
2021/06/21 10:01:14;;;;;;;53.42;8.88;;;;;;;27.18;66.09;101132.00;1756543;81;21344;-73
2021/06/21 10:03:45;;;;;;;75.25;10.08;;;;;;;27.20;65.16;101126.75;1739326;81;21206;-75
2021/06/21 10:06:17;;;;;;;66.22;9.00;;;;;;;27.24;65.48;101125.66;1739379;81;21415;-74
2021/06/21 10:08:53;;;;;;;60.10;8.85;;;;;;;27.28;65.42;101131.70;1762733;81;21186;-75
2021/06/21 10:11:46;;;;;;;58.33;9.00;;;;;;;27.27;64.85;101129.23;1744816;82;21409;-74
2021/06/21 10:14:20;;;;;;;82.17;11.38;;;;;;;27.25;64.96;101129.36;1750013;81;21352;-77
2021/06/21 10:16:57;;;;;;;58.05;9.33;;;;;;;27.24;65.03;101124.23;1759103;81;21841;-73
2021/06/21 10:19:30;;;;;;;57.98;11.20;;;;;;;27.25;65.03;101125.08;1737501;81;21384;-75
2021/06/21 10:22:04;;;;;;;81.17;9.18;;;;;;;27.21;64.75;101121.28;1751518;80;21328;-76
2021/06/21 10:24:37;;;;;;;74.25;9.28;;;;;;;27.21;65.11;101117.00;1734237;81;21261;-71
2021/06/21 10:27:10;;;;;;;69.75;10.75;;;;;;;27.24;65.12;101119.95;1762244;79;21326;-74
2021/06/21 10:29:42;;;;;;;;;;;;;;;27.22;64.86;101125.78;1772943;79;21253;-73
2021/06/21 10:32:15;;;;;;;54.98;9.10;;;;;;;27.17;64.98;101134.59;1730225;81;20186;-73
2021/06/21 10:34:48;;;;;;;;;;;;;;;27.03;64.93;101129.85;1738053;81;21198;-79
2021/06/21 10:37:24;;;;;;;71.77;11.97;;;;;;;26.92;65.25;101135.23;1730324;81;20531;-75
2021/06/21 10:40:08;;;;;;;57.98;9.95;;;;;;;26.82;65.46;101128.58;1757588;80;21349;-73
2021/06/21 10:42:46;;;;;;;70.60;10.13;;;;;;;26.70;65.60;101131.44;1763362;81;21368;-77
2021/06/21 10:45:22;;;;;;;70.22;10.32;;;;;;;26.58;66.07;101137.16;1750954;80;21202;-78
2021/06/21 10:48:10;;;;;;;71.35;10.15;;;;;;;26.48;66.45;101135.34;1734624;81;21329;-73
2021/06/21 10:50:53;;;;;;;73.47;10.63;;;;;;;26.41;66.85;101135.11;1753900;80;21198;-75
2021/06/21 10:53:26;;;;;;;65.85;9.33;;;;;;;26.44;67.01;101138.66;1761923;80;21228;-76
2021/06/21 10:55:58;;;;;;;63.40;8.87;;;;;;;26.39;67.61;101138.31;1739974;81;21293;-74
2021/06/21 10:58:35;;;;;;;67.87;10.90;;;;;;;26.38;67.34;101142.93;1753198;80;21541;-75
2021/06/21 11:01:14;;;;;;;74.37;10.13;;;;;;;26.40;66.86;101142.00;1744430;81;21286;-78
2021/06/21 11:03:48;;;;;;;51.48;8.83;;;;;;;26.41;66.46;101145.92;1756792;81;21332;-74
2021/06/21 11:06:28;;;;;;;58.60;7.12;;;;;;;26.38;66.32;101134.38;1764686;80;21205;-76
2021/06/21 11:09:01;;;;;;;61.53;9.88;;;;;;;26.31;66.42;101139.84;1749517;81;21364;-77
2021/06/21 11:11:45;;;;;;;64.82;9.80;;;;;;;26.21;66.07;101133.20;1756605;81;21683;-78
2021/06/21 11:14:23;;;;;;;52.30;9.50;;;;;;;26.16;66.37;101133.43;1761431;80;21253;-73
2021/06/21 11:17:19;;;;;;;76.22;9.55;;;;;;;26.13;66.64;101121.30;1735957;80;21384;-79
2021/06/21 11:19:52;;;;;;;65.03;9.48;;;;;;;26.13;67.16;101119.30;1746418;81;21264;-73
2021/06/21 11:22:45;;;;;;;66.67;8.80;;;;;;;26.20;67.24;101123.00;1752941;81;21352;-78
2021/06/21 11:25:23;;;;;;;58.30;8.83;;;;;;;26.27;67.67;101125.48;1750013;81;21403;-74
2021/06/21 11:27:56;;;;;;;55.65;9.58;;;;;;;26.34;67.78;101129.17;1762811;80;21998;-76
2021/06/21 11:30:32;;;;;;;63.02;9.30;;;;;;;26.41;67.69;101122.29;1744011;80;21729;-75
2021/06/21 11:33:13;;;;;;;61.25;7.97;;;;;;;26.49;66.72;101129.88;1739266;80;21350;-74
2021/06/21 11:35:58;;;;;;;72.08;9.48;;;;;;;26.44;66.06;101125.25;1740777;82;21330;-74
2021/06/21 11:38:41;;;;;;;75.10;11.43;;;;;;;26.35;66.18;101117.44;1740605;81;21345;-74
2021/06/21 11:41:29;;;;;;;50.50;8.15;;;;;;;26.32;66.43;101122.40;1740812;82;21350;-75
2021/06/21 11:44:03;;;;;;;64.50;9.30;;;;;;;26.33;65.65;101119.78;1742190;82;21445;-72
2021/06/21 11:46:50;;;;;;;61.77;9.93;;;;;;;26.33;65.41;101119.78;1739003;81;21172;-73
2021/06/21 11:49:23;;;;;;;52.53;8.25;;;;;;;26.38;65.45;101115.28;1735603;82;21367;-74
2021/06/21 11:52:05;;;;;;;71.75;11.88;;;;;;;26.45;65.13;101114.70;1754140;79;21716;-71
2021/06/21 11:54:44;;;;;;;59.70;9.60;;;;;;;26.48;65.11;101114.81;1766817;79;21296;-72
2021/06/21 11:57:19;;;;;;;47.93;8.13;;;;;;;26.49;64.71;101119.91;1790634;80;21204;-72